createdAt,value
2023-04-16T00:01:34.714Z,68.21
2023-04-16T00:04:01.601Z,68.46
2023-04-16T00:06:28.706Z,68.68
2023-04-16T00:08:55.711Z,68.71
2023-04-16T00:11:22.350Z,68.67
2023-04-16T00:13:49.207Z,68.97
2023-04-16T00:16:16.187Z,68.89
2023-04-16T00:18:42.997Z,69.05
2023-04-16T00:21:09.667Z,69.01
2023-04-16T00:23:36.390Z,69.25
2023-04-16T00:26:03.020Z,69.14
2023-04-16T00:28:29.749Z,69.39
2023-04-16T00:30:56.385Z,69.25
2023-04-16T00:33:23.883Z,69.51
2023-04-16T00:35:51.256Z,69.22
2023-04-16T00:38:18.212Z,69.19
2023-04-16T00:40:44.918Z,69.24
2023-04-16T00:43:11.953Z,69.14
2023-04-16T00:45:38.659Z,69.38
2023-04-16T00:48:06.091Z,69.35
2023-04-16T00:50:33.724Z,69.31
2023-04-16T00:53:01.856Z,69.16
2023-04-16T00:55:28.601Z,69.21
2023-04-16T00:57:55.393Z,69.15
2023-04-16T01:00:22.343Z,69.33
2023-04-16T01:02:49.198Z,69.35
2023-04-16T01:05:16.147Z,69.61
2023-04-16T01:07:42.727Z,69.39
2023-04-16T01:10:09.435Z,69.53
2023-04-16T01:12:36.053Z,69.48
2023-04-16T01:15:03.492Z,69.54
2023-04-16T01:17:30.365Z,69.66
2023-04-16T01:20:01.014Z,70.01
2023-04-16T01:22:30.627Z,69.98
2023-04-16T01:24:57.266Z,69.92
2023-04-16T01:27:23.868Z,69.74
2023-04-16T01:29:50.608Z,70.01
2023-04-16T01:32:17.187Z,69.96
2023-04-16T01:34:43.855Z,69.69
2023-04-16T01:37:11.392Z,69.79
2023-04-16T01:39:38.019Z,69.84
2023-04-16T01:42:04.827Z,69.80
2023-04-16T01:44:31.421Z,70.09
2023-04-16T01:46:58.242Z,70.38
2023-04-16T01:49:27.352Z,69.84
2023-04-16T01:51:53.980Z,70.23
2023-04-16T01:54:20.810Z,70.28
2023-04-16T01:56:47.647Z,70.12
2023-04-16T01:59:14.260Z,70.05
2023-04-16T02:01:42.073Z,70.18
2023-04-16T02:04:09.121Z,70.19
2023-04-16T02:06:35.824Z,70.01
2023-04-16T02:09:02.420Z,70.16
2023-04-16T02:11:29.536Z,70.02
2023-04-16T02:13:56.147Z,69.94
2023-04-16T02:16:22.838Z,70.38
2023-04-16T02:18:49.631Z,70.54
2023-04-16T02:21:16.334Z,70.46
2023-04-16T02:23:43.001Z,70.22
2023-04-16T02:26:09.694Z,70.32
2023-04-16T02:28:36.339Z,70.24
2023-04-16T02:31:02.983Z,70.22
2023-04-16T02:33:30.502Z,70.31
2023-04-16T02:35:57.160Z,70.42
2023-04-16T02:38:23.804Z,70.29
2023-04-16T02:40:50.813Z,70.52
2023-04-16T02:43:17.439Z,70.79
2023-04-16T02:45:44.852Z,70.44
2023-04-16T02:48:11.742Z,70.36
2023-04-16T02:50:38.416Z,70.59
2023-04-16T02:53:06.764Z,70.41
2023-04-16T02:55:33.529Z,70.73
2023-04-16T02:58:00.728Z,70.68
2023-04-16T03:00:27.450Z,70.52
2023-04-16T03:02:54.576Z,70.59
2023-04-16T03:05:21.906Z,70.71
2023-04-16T03:07:50.660Z,71.03
2023-04-16T03:10:17.682Z,70.90
2023-04-16T03:12:44.298Z,71.24
2023-04-16T03:15:11.172Z,71.45
2023-04-16T03:17:38.082Z,71.51
2023-04-16T03:20:05.539Z,71.54
2023-04-16T03:22:32.111Z,71.71
2023-04-16T03:24:58.836Z,71.87
2023-04-16T03:27:25.627Z,71.94
2023-04-16T03:29:52.327Z,71.86
2023-04-16T03:32:19.276Z,71.71
2023-04-16T03:34:46.178Z,71.99
2023-04-16T03:37:12.961Z,71.78
2023-04-16T03:39:39.818Z,72.04
2023-04-16T03:42:06.648Z,72.34
2023-04-16T03:44:33.336Z,72.09
2023-04-16T03:47:00.359Z,72.38
2023-04-16T03:49:28.126Z,72.48
2023-04-16T03:51:54.732Z,72.34
2023-04-16T03:54:22.878Z,72.60
2023-04-16T03:56:49.922Z,72.52
2023-04-16T03:59:16.602Z,72.76
2023-04-16T04:01:43.614Z,72.76
2023-04-16T04:04:11.095Z,72.77
2023-04-16T04:06:37.845Z,72.28
2023-04-16T04:09:06.030Z,72.50
2023-04-16T04:11:32.878Z,72.63
2023-04-16T04:13:59.522Z,72.43
2023-04-16T04:16:26.664Z,72.53
2023-04-16T04:18:53.375Z,72.54
2023-04-16T04:21:20.033Z,72.80
2023-04-16T04:23:47.252Z,72.78
2023-04-16T04:26:13.902Z,72.51
2023-04-16T04:28:40.771Z,72.71
2023-04-16T04:31:07.597Z,72.61
2023-04-16T04:33:34.270Z,73.02
2023-04-16T04:36:01.047Z,72.77
2023-04-16T04:38:27.755Z,72.82
2023-04-16T04:40:54.408Z,72.97
2023-04-16T04:43:21.171Z,72.85
2023-04-16T04:45:49.425Z,73.09
2023-04-16T04:48:16.661Z,73.23
2023-04-16T04:50:45.551Z,73.13
2023-04-16T04:53:14.987Z,72.94
2023-04-16T04:55:42.010Z,73.05
2023-04-16T04:58:09.109Z,73.19
2023-04-16T05:00:37.383Z,73.15
2023-04-16T05:03:06.405Z,73.20
2023-04-16T05:05:33.328Z,73.26
2023-04-16T05:08:00.173Z,73.31
2023-04-16T05:10:27.278Z,73.21
2023-04-16T05:12:53.973Z,73.29
2023-04-16T05:15:20.687Z,73.36
2023-04-16T05:17:47.540Z,73.27
2023-04-16T05:20:14.416Z,73.36
2023-04-16T05:22:41.412Z,73.55
2023-04-16T05:25:08.507Z,73.32
2023-04-16T05:27:35.427Z,73.15
2023-04-16T05:30:02.330Z,73.33
2023-04-16T05:32:29.029Z,73.52
2023-04-16T05:34:55.974Z,73.09
2023-04-16T05:37:22.619Z,73.46
2023-04-16T05:39:49.682Z,73.17
2023-04-16T05:42:16.459Z,73.11
2023-04-16T05:44:43.167Z,73.19
2023-04-16T05:47:09.891Z,73.47
2023-04-16T05:49:39.778Z,73.41
2023-04-16T05:52:07.438Z,73.39
2023-04-16T05:54:34.169Z,73.05
2023-04-16T05:57:01.921Z,73.06
2023-04-16T05:59:29.402Z,72.88
2023-04-16T06:01:56.154Z,72.76
2023-04-16T06:04:22.941Z,72.54
2023-04-16T06:06:49.711Z,72.41
2023-04-16T06:09:16.713Z,72.25
2023-04-16T06:11:43.357Z,71.85
2023-04-16T06:14:10.023Z,71.76
2023-04-16T06:16:36.636Z,71.48
2023-04-16T06:19:03.286Z,71.18
2023-04-16T06:21:30.018Z,70.84
2023-04-16T06:23:56.595Z,70.38
2023-04-16T06:26:23.351Z,69.99
2023-04-16T06:28:50.552Z,69.52
2023-04-16T06:31:17.433Z,69.00
2023-04-16T06:33:44.277Z,68.40
2023-04-16T06:36:11.688Z,68.33
2023-04-16T06:38:38.480Z,68.08
2023-04-16T06:41:05.459Z,67.68
2023-04-16T06:43:33.841Z,67.17
2023-04-16T06:46:00.713Z,66.52
2023-04-16T06:48:27.868Z,66.51
2023-04-16T06:50:56.098Z,65.90
2023-04-16T06:53:23.623Z,65.55
2023-04-16T06:55:50.512Z,64.87
2023-04-16T06:58:17.325Z,64.36
2023-04-16T07:00:44.040Z,64.15
2023-04-16T07:03:11.283Z,63.41
2023-04-16T07:05:38.551Z,63.10
2023-04-16T07:08:05.400Z,62.80
2023-04-16T07:10:32.361Z,61.89
2023-04-16T07:13:01.553Z,61.52
2023-04-16T07:15:28.901Z,60.66
2023-04-16T07:17:55.736Z,60.19
2023-04-16T07:20:22.651Z,59.99
2023-04-16T07:22:49.587Z,59.56
2023-04-16T07:25:16.303Z,59.17
2023-04-16T07:27:43.083Z,58.89
2023-04-16T07:30:09.977Z,58.26
2023-04-16T07:32:36.625Z,58.12
2023-04-16T07:35:03.951Z,57.43
2023-04-16T07:37:31.020Z,57.01
2023-04-16T07:39:58.537Z,56.03
2023-04-16T07:42:25.190Z,56.20
2023-04-16T07:44:51.826Z,55.52
2023-04-16T07:47:19.284Z,54.56
2023-04-16T07:49:45.941Z,54.37
2023-04-16T07:52:12.791Z,54.01
2023-04-16T07:54:39.634Z,52.89
2023-04-16T07:57:06.258Z,52.61
2023-04-16T07:59:32.892Z,51.74
2023-04-16T08:02:00.113Z,50.93
2023-04-16T08:04:29.401Z,50.42
2023-04-16T08:06:56.269Z,50.41
2023-04-16T08:09:24.337Z,49.71
2023-04-16T08:11:51.268Z,49.62
2023-04-16T08:14:17.977Z,49.20
2023-04-16T08:16:44.647Z,48.66
2023-04-16T08:19:11.526Z,48.48
2023-04-16T08:21:38.509Z,48.37
2023-04-16T08:24:05.498Z,48.47
2023-04-16T08:26:32.501Z,48.81
2023-04-16T08:28:59.192Z,48.87
2023-04-16T08:31:26.335Z,48.50
2023-04-16T08:33:53.147Z,48.24
2023-04-16T08:36:19.991Z,48.46
2023-04-16T08:38:47.005Z,48.43
2023-04-16T08:41:14.133Z,48.54
2023-04-16T08:43:45.188Z,48.00
2023-04-16T08:46:12.549Z,48.20
2023-04-16T08:48:43.709Z,48.18
2023-04-16T08:51:12.256Z,48.06
2023-04-16T08:53:59.990Z,47.78
2023-04-16T08:56:27.355Z,47.47
2023-04-16T08:58:55.292Z,47.45
2023-04-16T09:01:22.888Z,47.41
2023-04-16T09:03:50.006Z,47.43
2023-04-16T09:06:18.357Z,47.10
2023-04-16T09:08:46.271Z,46.94
2023-04-16T09:11:18.329Z,46.89
2023-04-16T09:13:46.782Z,46.33
2023-04-16T09:16:14.441Z,46.22
2023-04-16T09:18:41.469Z,45.96
2023-04-16T09:21:11.363Z,45.65
2023-04-16T09:23:41.307Z,45.50
2023-04-16T09:26:08.040Z,45.78
2023-04-16T09:28:53.622Z,44.96
2023-04-16T09:31:20.433Z,44.63
2023-04-16T09:34:02.616Z,44.37
2023-04-16T09:36:30.140Z,44.54
2023-04-16T09:38:58.104Z,44.76
2023-04-16T09:41:39.965Z,44.43
2023-04-16T09:44:06.587Z,44.27
2023-04-16T09:46:35.248Z,44.03
2023-04-16T09:49:16.147Z,44.48
2023-04-16T09:51:44.197Z,43.87
2023-04-16T09:54:11.277Z,43.53
2023-04-16T09:56:46.103Z,43.11
2023-04-16T09:59:23.795Z,43.02
2023-04-16T10:01:53.713Z,43.31
2023-04-16T10:04:53.526Z,42.66
2023-04-16T10:07:21.185Z,42.26
2023-04-16T10:09:48.903Z,42.23
2023-04-16T10:12:16.115Z,41.65
2023-04-16T10:14:43.360Z,41.38
2023-04-16T10:17:10.402Z,41.30
2023-04-16T10:19:37.679Z,41.26
2023-04-16T10:22:06.525Z,40.99
2023-04-16T10:24:34.675Z,40.79
2023-04-16T10:27:01.633Z,40.62
2023-04-16T10:29:30.224Z,40.48
2023-04-16T10:31:58.442Z,40.72
2023-04-16T10:34:28.309Z,39.95
2023-04-16T10:36:56.209Z,39.84
2023-04-16T10:39:24.874Z,39.32
2023-04-16T10:42:07.516Z,39.25
2023-04-16T10:44:34.253Z,39.35
2023-04-16T10:47:00.939Z,39.26
2023-04-16T10:49:27.886Z,39.00
2023-04-16T10:51:58.783Z,38.95
2023-04-16T10:54:28.364Z,38.79
2023-04-16T10:57:02.203Z,38.80
2023-04-16T10:59:32.810Z,38.94
2023-04-16T11:02:01.948Z,38.92
2023-04-16T11:04:30.672Z,39.44
2023-04-16T11:07:02.083Z,39.35
2023-04-16T11:09:50.588Z,39.67
2023-04-16T11:12:19.054Z,40.21
2023-04-16T11:14:51.560Z,40.35
2023-04-16T11:17:19.859Z,40.59
2023-04-16T11:19:47.058Z,40.53
2023-04-16T11:22:17.539Z,40.98
2023-04-16T11:24:45.780Z,40.88
2023-04-16T11:27:13.968Z,40.71
2023-04-16T11:29:41.566Z,40.70
2023-04-16T11:32:08.809Z,40.81
2023-04-16T11:34:43.817Z,41.14
2023-04-16T11:37:11.184Z,41.50
2023-04-16T11:39:49.370Z,42.02
2023-04-16T11:42:23.240Z,42.53
2023-04-16T11:44:54.611Z,42.96
2023-04-16T11:47:22.986Z,43.59
2023-04-16T11:49:50.257Z,43.96
2023-04-16T11:52:30.941Z,44.23
2023-04-16T11:54:58.398Z,44.21
2023-04-16T11:57:30.561Z,44.35
2023-04-16T12:00:01.508Z,44.62
2023-04-16T12:02:50.276Z,45.13
2023-04-16T12:05:35.144Z,45.83
2023-04-16T12:08:07.391Z,46.44
2023-04-16T12:10:52.775Z,46.59
2023-04-16T12:13:19.919Z,46.89
2023-04-16T12:15:57.126Z,47.51
2023-04-16T12:18:28.654Z,47.54
2023-04-16T12:20:55.543Z,48.11
2023-04-16T12:23:34.007Z,48.19
2023-04-16T12:26:10.940Z,48.32
2023-04-16T12:28:38.629Z,48.56
2023-04-16T12:31:06.137Z,48.58
2023-04-16T12:33:32.873Z,48.83
2023-04-16T12:35:59.873Z,49.01
2023-04-16T12:38:27.294Z,49.28
2023-04-16T12:40:57.106Z,49.56
2023-04-16T12:43:24.452Z,49.60
2023-04-16T12:45:51.523Z,49.67
2023-04-16T12:48:18.204Z,49.97
2023-04-16T12:50:44.906Z,50.26
2023-04-16T12:53:12.086Z,50.19
2023-04-16T12:55:38.818Z,50.18
2023-04-16T12:58:05.473Z,49.88
2023-04-16T13:00:32.253Z,49.46
2023-04-16T13:02:58.983Z,49.41
2023-04-16T13:05:26.501Z,49.41
2023-04-16T13:07:53.215Z,49.07
2023-04-16T13:10:21.576Z,48.85
2023-04-16T13:12:48.980Z,48.72
2023-04-16T13:15:15.882Z,48.46
2023-04-16T13:17:42.613Z,48.52
2023-04-16T13:20:09.976Z,48.35
2023-04-16T13:22:36.925Z,48.10
2023-04-16T13:25:03.862Z,47.88
2023-04-16T13:27:32.386Z,47.86
2023-04-16T13:29:59.013Z,47.82
2023-04-16T13:32:25.779Z,47.55
2023-04-16T13:34:52.533Z,47.64
2023-04-16T13:37:19.174Z,47.39
2023-04-16T13:39:45.989Z,47.44
2023-04-16T13:42:12.891Z,47.20
2023-04-16T13:44:39.496Z,47.02
2023-04-16T13:47:06.317Z,46.53
2023-04-16T13:49:36.176Z,46.20
2023-04-16T13:52:03.136Z,45.88
2023-04-16T13:54:29.874Z,45.91
2023-04-16T13:56:56.864Z,45.87
2023-04-16T13:59:23.668Z,45.53
2023-04-16T14:01:51.179Z,45.60
2023-04-16T14:04:18.365Z,45.36
2023-04-16T14:06:45.284Z,45.47
2023-04-16T14:09:12.498Z,45.24
2023-04-16T14:11:39.517Z,45.45
2023-04-16T14:14:06.560Z,45.50
2023-04-16T14:16:33.907Z,45.25
2023-04-16T14:19:00.752Z,45.36
2023-04-16T14:21:27.544Z,45.45
2023-04-16T14:23:54.157Z,45.49
2023-04-16T14:26:21.131Z,45.49
2023-04-16T14:28:47.932Z,45.76
2023-04-16T14:31:14.627Z,45.78
2023-04-16T14:33:42.067Z,46.01
2023-04-16T14:36:09.045Z,46.28
2023-04-16T14:38:36.192Z,46.32
2023-04-16T14:41:03.068Z,46.64
2023-04-16T14:43:29.713Z,46.93
2023-04-16T14:45:58.697Z,46.90
2023-04-16T14:48:25.942Z,46.94
2023-04-16T14:50:53.767Z,46.64
2023-04-16T14:53:20.529Z,46.70
2023-04-16T14:55:47.737Z,46.69
2023-04-16T14:58:14.419Z,47.11
2023-04-16T15:00:41.604Z,47.21
2023-04-16T15:03:08.467Z,47.39
2023-04-16T15:05:35.844Z,47.43
2023-04-16T15:08:02.516Z,47.78
2023-04-16T15:10:30.045Z,47.63
2023-04-16T15:12:56.666Z,47.46
2023-04-16T15:15:23.282Z,47.67
2023-04-16T15:17:51.230Z,47.84
2023-04-16T15:20:18.017Z,47.86
2023-04-16T15:22:44.660Z,47.88
2023-04-16T15:25:11.872Z,48.10
2023-04-16T15:27:38.654Z,47.99
2023-04-16T15:30:06.532Z,48.11
2023-04-16T15:32:33.393Z,47.79
2023-04-16T15:35:03.549Z,48.21
2023-04-16T15:37:30.418Z,48.17
2023-04-16T15:39:57.564Z,48.04
2023-04-16T15:42:24.487Z,48.18
2023-04-16T15:44:51.191Z,48.22
2023-04-16T15:47:27.052Z,48.19
2023-04-16T15:49:58.126Z,48.35
2023-04-16T15:52:24.795Z,48.46
2023-04-16T15:54:51.472Z,48.55
2023-04-16T15:57:18.099Z,48.72
2023-04-16T15:59:59.316Z,48.83
2023-04-16T16:02:31.919Z,48.73
2023-04-16T16:05:00.330Z,48.81
2023-04-16T16:07:27.035Z,48.83
2023-04-16T16:09:53.712Z,49.19
2023-04-16T16:12:20.391Z,49.41
2023-04-16T16:14:47.777Z,49.55
2023-04-16T16:17:14.371Z,49.38
2023-04-16T16:19:41.317Z,49.50
2023-04-16T16:22:09.387Z,49.65
2023-04-16T16:24:36.308Z,49.95
2023-04-16T16:27:03.065Z,49.86
2023-04-16T16:29:29.773Z,49.86
2023-04-16T16:31:56.533Z,50.02
2023-04-16T16:34:23.278Z,50.29
2023-04-16T16:36:49.923Z,50.28
2023-04-16T16:39:16.572Z,50.35
2023-04-16T16:41:43.319Z,50.61
2023-04-16T16:44:10.373Z,50.86
2023-04-16T16:46:37.410Z,50.71
2023-04-16T16:49:06.018Z,51.27
2023-04-16T16:51:34.029Z,51.59
2023-04-16T16:54:00.891Z,51.87
2023-04-16T16:56:28.134Z,52.27
2023-04-16T16:58:54.883Z,52.58
2023-04-16T17:01:21.673Z,52.96
2023-04-16T17:03:48.506Z,53.25
2023-04-16T17:06:15.769Z,53.60
2023-04-16T17:08:42.573Z,53.88
2023-04-16T17:11:09.290Z,54.03
2023-04-16T17:13:36.170Z,53.93
2023-04-16T17:16:03.354Z,54.20
2023-04-16T17:18:30.062Z,54.45
2023-04-16T17:20:56.850Z,54.66
2023-04-16T17:23:23.901Z,54.79
2023-04-16T17:25:50.726Z,55.05
2023-04-16T17:28:17.452Z,55.21
2023-04-16T17:30:44.385Z,55.33
2023-04-16T17:33:11.424Z,55.52
2023-04-16T17:35:40.540Z,55.62
2023-04-16T17:38:07.247Z,56.01
2023-04-16T17:40:34.009Z,56.39
2023-04-16T17:43:00.655Z,56.58
2023-04-16T17:45:27.467Z,56.59
2023-04-16T17:47:54.194Z,56.70
2023-04-16T17:50:20.969Z,57.12
2023-04-16T17:52:47.716Z,57.38
2023-04-16T17:55:14.439Z,57.72
2023-04-16T17:57:41.248Z,57.81
2023-04-16T18:00:14.484Z,58.09
2023-04-16T18:02:41.549Z,58.25
2023-04-16T18:05:08.657Z,58.40
2023-04-16T18:07:36.662Z,58.77
2023-04-16T18:10:03.757Z,58.81
2023-04-16T18:12:30.667Z,59.00
2023-04-16T18:14:57.881Z,59.35
2023-04-16T18:17:24.790Z,59.32
2023-04-16T18:19:51.611Z,59.76
2023-04-16T18:22:18.401Z,60.04
2023-04-16T18:24:45.024Z,60.75
2023-04-16T18:27:14.099Z,60.73
2023-04-16T18:29:40.954Z,61.32
2023-04-16T18:32:11.951Z,61.58
2023-04-16T18:34:39.442Z,61.90
2023-04-16T18:37:06.920Z,62.36
2023-04-16T18:39:34.083Z,62.84
2023-04-16T18:42:01.476Z,63.00
2023-04-16T18:44:28.942Z,63.39
2023-04-16T18:46:58.473Z,63.78
2023-04-16T18:49:25.697Z,64.01
2023-04-16T18:51:55.932Z,64.32
2023-04-16T18:54:23.461Z,64.69
2023-04-16T18:56:50.160Z,64.84
2023-04-16T18:59:16.870Z,65.18
2023-04-16T19:01:44.226Z,65.49
2023-04-16T19:04:10.966Z,65.69
2023-04-16T19:06:37.928Z,65.75
2023-04-16T19:09:04.603Z,65.76
2023-04-16T19:11:31.230Z,66.19
2023-04-16T19:13:58.013Z,66.35
2023-04-16T19:16:24.911Z,66.54
2023-04-16T19:18:51.950Z,66.80
2023-04-16T19:21:18.593Z,67.02
2023-04-16T19:23:45.620Z,67.21
2023-04-16T19:26:12.411Z,67.36
2023-04-16T19:28:39.791Z,67.44
2023-04-16T19:31:06.657Z,67.37
2023-04-16T19:33:33.382Z,67.71
2023-04-16T19:36:00.510Z,67.75
2023-04-16T19:38:27.607Z,67.83
2023-04-16T19:40:55.592Z,67.99
2023-04-16T19:43:22.495Z,68.10
2023-04-16T19:45:53.658Z,68.20
2023-04-16T19:48:20.882Z,68.63
2023-04-16T19:50:48.280Z,68.69
2023-04-16T19:53:17.126Z,68.76
2023-04-16T19:55:44.404Z,68.89
2023-04-16T19:58:11.168Z,68.86
2023-04-16T20:00:47.548Z,69.29
2023-04-16T20:03:14.778Z,69.22
2023-04-16T20:05:41.662Z,69.10
2023-04-16T20:08:08.714Z,69.33
2023-04-16T20:10:35.498Z,69.21
2023-04-16T20:13:02.198Z,69.25
2023-04-16T20:15:28.995Z,69.50
2023-04-16T20:17:56.393Z,69.70
2023-04-16T20:20:23.670Z,69.59
2023-04-16T20:22:50.811Z,70.07
2023-04-16T20:25:19.539Z,70.45
2023-04-16T20:27:46.349Z,70.48
2023-04-16T20:30:14.178Z,70.78
2023-04-16T20:32:41.060Z,70.68
2023-04-16T20:35:10.821Z,70.77
2023-04-16T20:37:42.222Z,70.79
2023-04-16T20:40:09.984Z,70.68
2023-04-16T20:42:36.702Z,70.64
2023-04-16T20:45:03.623Z,70.67
2023-04-16T20:47:30.515Z,70.79
2023-04-16T20:49:58.206Z,70.75
2023-04-16T20:52:25.103Z,70.78
2023-04-16T20:54:52.366Z,71.03
2023-04-16T20:57:19.297Z,70.99
2023-04-16T20:59:46.326Z,71.14
2023-04-16T21:02:13.263Z,71.30
2023-04-16T21:04:40.618Z,71.54
2023-04-16T21:07:07.702Z,71.29
2023-04-16T21:09:34.734Z,71.49
2023-04-16T21:12:01.702Z,71.51
2023-04-16T21:14:30.029Z,71.59
2023-04-16T21:16:56.690Z,71.73
2023-04-16T21:19:23.462Z,71.76
2023-04-16T21:21:50.136Z,71.70
2023-04-16T21:24:16.879Z,71.64
2023-04-16T21:26:43.497Z,71.77
2023-04-16T21:29:13.276Z,71.70
2023-04-16T21:31:40.574Z,71.88
2023-04-16T21:34:07.322Z,71.94
2023-04-16T21:36:35.616Z,72.00
2023-04-16T21:39:02.824Z,72.08
2023-04-16T21:41:29.699Z,72.17
2023-04-16T21:43:56.658Z,72.13
2023-04-16T21:46:23.454Z,72.29
2023-04-16T21:48:50.894Z,72.21
2023-04-16T21:51:18.283Z,72.25
2023-04-16T21:53:45.479Z,72.40
2023-04-16T21:56:12.242Z,72.29
2023-04-16T21:58:39.022Z,72.13
2023-04-16T22:01:07.267Z,72.04
2023-04-16T22:03:40.317Z,72.12
2023-04-16T22:06:07.954Z,72.28
2023-04-16T22:08:35.069Z,72.11
2023-04-16T22:11:03.171Z,72.18
2023-04-16T22:13:32.673Z,72.11
2023-04-16T22:16:03.360Z,72.29
2023-04-16T22:18:32.950Z,72.25
2023-04-16T22:21:00.512Z,72.28
2023-04-16T22:23:40.179Z,72.35
2023-04-16T22:26:10.474Z,72.27
2023-04-16T22:28:40.168Z,72.36
2023-04-16T22:31:07.961Z,72.41
2023-04-16T22:33:38.160Z,72.56
2023-04-16T22:36:08.924Z,72.37
2023-04-16T22:38:40.536Z,72.34
2023-04-16T22:41:08.736Z,72.16
2023-04-16T22:43:38.764Z,72.12
2023-04-16T22:46:08.177Z,72.10
2023-04-16T22:48:39.738Z,72.06
2023-04-16T22:51:10.804Z,72.20
2023-04-16T22:53:40.976Z,72.14
2023-04-16T22:56:09.620Z,72.07
2023-04-16T22:58:41.041Z,71.94
2023-04-16T23:01:13.144Z,71.97
2023-04-16T23:03:43.273Z,72.09
2023-04-16T23:06:12.148Z,72.16
2023-04-16T23:08:41.856Z,72.39
2023-04-16T23:11:10.703Z,72.30
2023-04-16T23:13:39.941Z,72.31
2023-04-16T23:16:08.711Z,72.22
2023-04-16T23:18:38.545Z,72.41
2023-04-16T23:21:06.583Z,72.18
2023-04-16T23:23:35.602Z,72.02
2023-04-16T23:26:05.021Z,71.95
2023-04-16T23:28:34.517Z,72.07
2023-04-16T23:31:05.935Z,72.64
2023-04-16T23:33:37.045Z,72.35
2023-04-16T23:36:07.230Z,72.51
2023-04-16T23:38:36.935Z,72.59
2023-04-16T23:41:06.148Z,72.43
2023-04-16T23:43:35.654Z,72.59
2023-04-16T23:46:05.382Z,72.45
2023-04-16T23:48:33.986Z,72.52
2023-04-16T23:51:04.067Z,72.51
2023-04-16T23:53:34.503Z,72.41
2023-04-16T23:56:04.257Z,72.39
2023-04-16T23:58:32.209Z,72.49
